This is the latest recevied weather packets stored in our database for station/object DL6DJ-15. If no packets are shown the sender has not sent any weather packets the latest 10 day(s).
| Time | Temp. | Humidity | Pressure | Rain* | Wind** | Luminosity | Snow |
|---|---|---|---|---|---|---|---|
| 1788597559 | 23.89° C | 55% | 1023.7 hPa | - | - | - | - |
| 1788597258 | 22.78° C | 60% | 1023.6 hPa | - | - | - | - |
| 1788596958 | 20.56° C | 66% | 1023.7 hPa | - | - | - | - |
| 1788596658 | 20.56° C | 67% | 1023.6 hPa | - | - | - | - |
| 1788596357 | 20° C | 68% | 1023.6 hPa | - | - | - | - |
| 1788596057 | 20.56° C | 64% | 1023.5 hPa | - | - | - | - |
| 1788595757 | 21.11° C | 63% | 1023.4 hPa | - | - | - | - |
| 1788595456 | 19.44° C | 70% | 1023.5 hPa | - | - | - | - |
| 1788595156 | 19.44° C | 71% | 1023.4 hPa | - | - | - | - |
| 1788594855 | 20.56° C | 64% | 1023.3 hPa | - | - | - | - |
| 1788594555 | 21.67° C | 61% | 1023.3 hPa | - | - | - | - |
| 1788594255 | 22.78° C | 57% | 1023.2 hPa | - | - | - | - |
| 1788593954 | 22.22° C | 59% | 1023.2 hPa | - | - | - | - |
| 1788593654 | 21.67° C | 62% | 1023.1 hPa | - | - | - | - |
| 1788593354 | 22.78° C | 59% | 1023.2 hPa | - | - | - | - |
| 1788593053 | 23.33° C | 60% | 1023 hPa | - | - | - | - |
| 1788592753 | 23.33° C | 59% | 1023.1 hPa | - | - | - | - |
| 1788592452 | 21.67° C | 67% | 1022.9 hPa | - | - | - | - |
| 1788592152 | 19.44° C | 76% | 1022.8 hPa | - | - | - | - |
| 1788591852 | 17.78° C | 82% | 1022.8 hPa | - | - | - | - |
| 1788591551 | 17.22° C | 89% | 1022.8 hPa | - | - | - | - |
| 1788591251 | 16.11° C | 92% | 1022.8 hPa | - | - | - | - |
| 1788590950 | 15.56° C | 95% | 1022.9 hPa | - | - | - | - |
| 1788590650 | 15.56° C | 97% | 1022.7 hPa | - | - | - | - |
| 1788590349 | 15° C | 97% | 1022.5 hPa | - | - | - | - |
* Rain since midnight (hover to see other rain measurements)
** Current wind speed in m/s (hover to see current wind gust speed)